Time;durP1;ratioP1;P1;durP2;ratioP2;P2;SDS_P1;SDS_P2;PMS_P1;PMS_P2;Temp;Humidity;BMP_temperature;BMP_pressure;BME280_temperature;BME280_humidity;BME280_pressure;Samples;Min_cycle;Max_cycle;Signal;HPM_P1;HPM_P2
2022/07/09 04:03:30;;;;;;;2.80;2.60;;;12.60;99.90;;;;;;6002200;23;20449;-63
2022/07/09 04:05:55;;;;;;;3.67;2.93;;;12.60;99.90;;;;;;5032317;28;20451;-62
2022/07/09 04:08:21;;;;;;;3.17;2.87;;;12.60;99.90;;;;;;5032773;28;20635;-64
2022/07/09 04:10:46;;;;;;;2.80;2.60;;;12.60;99.90;;;;;;5032909;28;20176;-64
2022/07/09 04:13:12;;;;;;;3.60;2.60;;;12.70;99.90;;;;;;5035695;28;20525;-64
2022/07/09 04:15:38;;;;;;;3.13;2.60;;;12.70;99.90;;;;;;5036338;28;20220;-66
2022/07/09 04:18:03;;;;;;;3.83;2.80;;;12.70;99.90;;;;;;5036072;28;20195;-66
2022/07/09 04:20:29;;;;;;;3.50;2.70;;;12.70;99.90;;;;;;5036517;28;20223;-63
2022/07/09 04:22:55;;;;;;;3.27;2.97;;;12.80;99.90;;;;;;5034415;28;20568;-64
2022/07/09 04:25:21;;;;;;;2.93;2.60;;;12.80;99.90;;;;;;5017687;28;20568;-64
2022/07/09 04:27:47;;;;;;;3.73;3.07;;;12.80;99.90;;;;;;5035929;28;20231;-65
2022/07/09 04:30:12;;;;;;;3.10;2.57;;;12.90;99.90;;;;;;5035997;28;20412;-65
2022/07/09 04:32:38;;;;;;;2.97;2.73;;;12.90;99.90;;;;;;5035414;28;20595;-64
2022/07/09 04:35:04;;;;;;;2.70;2.50;;;12.90;99.90;;;;;;5034819;28;20192;-65
2022/07/09 04:37:30;;;;;;;3.50;3.20;;;12.90;99.90;;;;;;5035561;28;20172;-61
2022/07/09 04:39:56;;;;;;;3.30;2.60;;;13.10;99.90;;;;;;5029268;28;20466;-64
2022/07/09 04:42:21;;;;;;;2.97;2.70;;;13.20;99.90;;;;;;5015542;28;20268;-65
2022/07/09 04:44:47;;;;;;;2.43;2.23;;;13.40;99.90;;;;;;5015914;28;20194;-64
2022/07/09 04:47:13;;;;;;;2.30;2.10;;;13.50;99.90;;;;;;5015844;28;20637;-63
2022/07/09 04:49:38;;;;;;;2.37;2.23;;;13.50;99.90;;;;;;5015682;28;20269;-63
2022/07/09 04:52:05;;;;;;;3.10;2.80;;;13.60;99.90;;;;;;5015558;28;20261;-63
2022/07/09 04:54:31;;;;;;;2.27;2.07;;;13.60;99.90;;;;;;5019925;28;20630;-63
2022/07/09 04:56:56;;;;;;;3.00;2.80;;;13.70;99.90;;;;;;5019153;28;20499;-64
2022/07/09 04:59:22;;;;;;;2.13;2.03;;;13.80;99.90;;;;;;5015563;28;20218;-64
2022/07/09 05:01:49;;;;;;;3.53;2.80;;;13.80;99.90;;;;;;5015434;28;20173;-64
2022/07/09 05:04:15;;;;;;;5.90;2.10;;;13.90;99.90;;;;;;5014842;28;20214;-62
2022/07/09 05:06:41;;;;;;;2.73;2.53;;;14.00;99.90;;;;;;5015280;28;20429;-63
2022/07/09 05:09:08;;;;;;;5.40;3.07;;;14.20;99.90;;;;;;5035590;28;20171;-65
2022/07/09 05:11:33;;;;;;;3.43;3.00;;;14.40;99.90;;;;;;5035263;28;20409;-63
2022/07/09 05:13:59;;;;;;;2.60;2.40;;;14.60;99.90;;;;;;5034575;28;20521;-64
2022/07/09 05:16:25;;;;;;;3.53;3.23;;;14.70;99.90;;;;;;5035185;28;20182;-65
2022/07/09 05:18:50;;;;;;;2.53;2.33;;;14.90;99.90;;;;;;5035112;28;20181;-65
2022/07/09 05:21:16;;;;;;;2.67;2.47;;;15.10;99.90;;;;;;5031164;28;20228;-64
2022/07/09 05:23:41;;;;;;;3.50;2.63;;;15.30;99.90;;;;;;5013883;28;20697;-64
2022/07/09 05:26:07;;;;;;;3.23;2.70;;;15.50;99.90;;;;;;5015131;28;20174;-64
2022/07/09 05:28:33;;;;;;;2.83;2.50;;;15.60;99.90;;;;;;5015166;28;20171;-63
2022/07/09 05:30:59;;;;;;;2.20;2.10;;;15.60;99.90;;;;;;5015082;28;20661;-62
2022/07/09 05:33:25;;;;;;;2.80;2.60;;;15.60;99.90;;;;;;5014678;28;20182;-65
2022/07/09 05:35:50;;;;;;;2.40;2.20;;;15.60;99.90;;;;;;5016808;28;20369;-65
2022/07/09 05:38:16;;;;;;;2.70;2.50;;;15.50;99.90;;;;;;5034685;28;20174;-63
2022/07/09 05:40:41;;;;;;;3.30;3.00;;;15.70;99.90;;;;;;5034674;28;20206;-63
2022/07/09 05:43:07;;;;;;;3.00;2.80;;;15.70;99.90;;;;;;5033925;28;20242;-65
2022/07/09 05:45:34;;;;;;;4.57;3.30;;;15.60;99.90;;;;;;5034504;28;20221;-65
2022/07/09 05:47:59;;;;;;;3.00;2.70;;;15.60;99.90;;;;;;5034328;28;20466;-64
2022/07/09 05:50:25;;;;;;;2.97;2.33;;;15.70;99.90;;;;;;5028439;28;20187;-65
2022/07/09 05:52:50;;;;;;;2.20;2.00;;;15.90;99.90;;;;;;5014251;28;20650;-64
2022/07/09 05:55:16;;;;;;;3.00;2.43;;;16.10;99.90;;;;;;5022235;28;20612;-64
2022/07/09 05:57:42;;;;;;;3.33;2.80;;;16.40;99.90;;;;;;5034410;28;20172;-62
2022/07/09 06:00:08;;;;;;;3.03;2.77;;;16.60;99.90;;;;;;5020811;28;20175;-64
2022/07/09 06:02:34;;;;;;;2.83;2.63;;;16.90;99.90;;;;;;5027334;28;20172;-63
2022/07/09 06:04:59;;;;;;;2.67;2.53;;;17.10;99.90;;;;;;5023885;28;20871;-63
2022/07/09 06:07:25;;;;;;;2.50;2.30;;;17.30;99.90;;;;;;5014525;28;20702;-66
2022/07/09 06:09:51;;;;;;;2.90;2.70;;;17.50;99.90;;;;;;5014320;28;20169;-66
2022/07/09 06:12:16;;;;;;;3.00;2.33;;;17.70;99.90;;;;;;5013972;28;20173;-67
2022/07/09 06:14:42;;;;;;;2.23;2.10;;;17.90;99.90;;;;;;5014020;28;20200;-67
2022/07/09 06:17:07;;;;;;;3.37;2.10;;;18.00;99.90;;;;;;5023063;28;20185;-66
2022/07/09 06:19:36;;;;;;;2.43;2.23;;;18.10;99.90;;;;;;5033464;28;20182;-68
2022/07/09 06:22:03;;;;;;;2.57;2.47;;;18.20;99.90;;;;;;5032497;28;20181;-67
2022/07/09 06:24:29;;;;;;;3.53;2.50;;;18.20;99.90;;;;;;5033355;28;20982;-68
2022/07/09 06:26:55;;;;;;;3.67;3.37;;;18.30;99.70;;;;;;5028789;28;20940;-67
2022/07/09 06:29:21;;;;;;;2.60;2.40;;;18.40;99.90;;;;;;5013968;28;20429;-68
2022/07/09 06:31:47;;;;;;;2.70;2.50;;;18.50;99.80;;;;;;5016367;28;20410;-65
2022/07/09 06:34:12;;;;;;;1.87;1.77;;;18.60;99.30;;;;;;5012387;28;20773;-64
2022/07/09 06:36:39;;;;;;;2.23;2.13;;;18.80;99.30;;;;;;5014164;28;20233;-65
2022/07/09 06:41:49;;;;;;;2.83;2.63;;;19.00;98.70;;;;;;5024051;28;20872;-66
2022/07/09 06:44:15;;;;;;;2.20;2.10;;;19.20;98.20;;;;;;5031473;28;20452;-64
2022/07/09 06:46:40;;;;;;;3.20;3.00;;;19.50;98.10;;;;;;5013766;28;20178;-65
2022/07/09 06:49:06;;;;;;;2.40;2.30;;;19.70;97.60;;;;;;5014293;28;20249;-64
2022/07/09 06:51:32;;;;;;;12.60;8.40;;;19.80;97.10;;;;;;5032194;28;20224;-64
2022/07/09 06:53:57;;;;;;;5.83;3.90;;;19.90;97.00;;;;;;5032646;28;20252;-65
2022/07/09 06:56:23;;;;;;;3.70;2.60;;;19.90;97.00;;;;;;5033376;28;20409;-66
2022/07/09 06:58:49;;;;;;;2.10;2.00;;;20.10;97.10;;;;;;5033210;28;20174;-64
2022/07/09 07:01:14;;;;;;;2.50;2.30;;;20.30;97.00;;;;;;5033449;28;20546;-65
2022/07/09 07:03:40;;;;;;;4.00;3.53;;;20.40;96.20;;;;;;5032930;28;20203;-65
2022/07/09 07:06:06;;;;;;;2.77;2.60;;;20.70;95.10;;;;;;5016757;28;20352;-65
2022/07/09 07:08:32;;;;;;;3.47;2.40;;;20.70;94.60;;;;;;5013631;28;20556;-64
2022/07/09 07:10:57;;;;;;;2.40;2.10;;;20.90;94.50;;;;;;5013400;28;20407;-65
2022/07/09 07:13:23;;;;;;;2.50;2.03;;;21.00;93.50;;;;;;5012875;28;20277;-65
2022/07/09 07:15:49;;;;;;;2.60;2.40;;;21.20;93.00;;;;;;5016855;28;20530;-64
2022/07/09 07:18:15;;;;;;;3.00;2.00;;;21.20;93.00;;;;;;5018328;28;20173;-65
2022/07/09 07:20:41;;;;;;;1.90;1.80;;;21.40;92.30;;;;;;5024682;28;20424;-63
2022/07/09 07:23:07;;;;;;;2.87;2.53;;;21.60;91.90;;;;;;5032584;28;20385;-66
2022/07/09 07:25:32;;;;;;;2.30;1.90;;;21.50;91.20;;;;;;5033062;28;20434;-69
2022/07/09 07:27:58;;;;;;;3.33;2.03;;;21.50;91.60;;;;;;5033139;28;20528;-67
2022/07/09 07:30:23;;;;;;;2.20;2.10;;;21.60;91.20;;;;;;5033258;28;20199;-67
2022/07/09 07:32:49;;;;;;;4.13;2.20;;;21.80;91.60;;;;;;5032626;28;20224;-69
2022/07/09 07:35:15;;;;;;;2.30;2.20;;;22.00;91.20;;;;;;5032559;28;20205;-70
2022/07/09 07:37:40;;;;;;;2.03;1.83;;;22.20;91.40;;;;;;5033240;28;20247;-70
2022/07/09 07:40:06;;;;;;;1.90;1.80;;;22.40;91.10;;;;;;5033131;28;20173;-69
2022/07/09 07:42:32;;;;;;;2.20;2.03;;;22.70;90.40;;;;;;5031557;28;20325;-69
2022/07/09 07:44:57;;;;;;;2.40;2.20;;;22.90;90.20;;;;;;5032788;28;20547;-69
2022/07/09 07:47:23;;;;;;;2.53;2.33;;;23.10;90.10;;;;;;5036679;28;20171;-69
2022/07/09 07:49:49;;;;;;;2.10;2.00;;;23.70;90.90;;;;;;5024330;28;20185;-68
2022/07/09 07:52:14;;;;;;;2.90;2.13;;;24.80;87.90;;;;;;5016728;28;20171;-69
2022/07/09 07:54:40;;;;;;;2.00;1.90;;;25.70;85.20;;;;;;5016562;28;20195;-69
2022/07/09 07:57:05;;;;;;;2.60;2.40;;;26.60;82.30;;;;;;5016665;28;20198;-69
2022/07/09 07:59:31;;;;;;;2.27;2.07;;;27.40;79.40;;;;;;5016606;28;20179;-69
2022/07/09 08:01:57;;;;;;;2.80;2.60;;;28.40;76.70;;;;;;5016701;28;20179;-71
2022/07/09 08:04:22;;;;;;;2.17;2.07;;;29.30;72.20;;;;;;5026291;28;20202;-71
2022/07/09 08:06:48;;;;;;;2.77;2.53;;;30.20;69.70;;;;;;5036246;28;20549;-70
2022/07/09 08:09:14;;;;;;;2.97;2.10;;;31.10;67.10;;;;;;5036498;28;20592;-75
2022/07/09 08:11:40;;;;;;;2.10;1.90;;;32.00;65.50;;;;;;5035795;28;20189;-75
2022/07/09 08:14:06;;;;;;;4.70;3.53;;;32.10;62.40;;;;;;5035899;28;20429;-75
2022/07/09 08:16:32;;;;;;;2.23;2.03;;;32.30;59.20;;;;;;5017606;28;20795;-72
2022/07/09 08:18:58;;;;;;;2.53;2.33;;;32.20;59.00;;;;;;5016488;28;20473;-74
2022/07/09 08:21:23;;;;;;;2.73;2.53;;;32.50;58.90;;;;;;5031869;28;20580;-72
2022/07/09 08:23:53;;;;;;;5.33;2.83;;;32.90;59.40;;;;;;5035452;28;20232;-70
2022/07/09 08:26:21;;;;;;;2.40;2.20;;;33.40;60.10;;;;;;5033282;28;20760;-71
2022/07/09 08:28:47;;;;;;;2.17;2.07;;;34.00;57.70;;;;;;5024675;28;20808;-71
2022/07/09 08:31:13;;;;;;;3.00;1.97;;;34.40;56.50;;;;;;5023642;28;20412;-68
2022/07/09 08:33:39;;;;;;;2.50;2.30;;;34.50;56.50;;;;;;5023207;28;20430;-69
2022/07/09 08:36:05;;;;;;;3.53;2.37;;;34.60;56.00;;;;;;5023544;28;20421;-70
2022/07/09 08:38:31;;;;;;;2.67;2.47;;;34.80;55.80;;;;;;5025154;28;20187;-71
2022/07/09 08:40:59;;;;;;;2.37;2.27;;;34.90;56.40;;;;;;5023246;28;20627;-69
2022/07/09 08:43:27;;;;;;;2.00;1.90;;;35.50;54.90;;;;;;5023833;28;20441;-69
2022/07/09 08:45:54;;;;;;;1.60;1.50;;;35.80;53.30;;;;;;5025011;28;20425;-72
2022/07/09 08:48:20;;;;;;;1.67;1.57;;;35.80;52.50;;;;;;5023357;28;20714;-69
2022/07/09 08:50:48;;;;;;;1.80;1.70;;;36.20;52.40;;;;;;5025379;28;20504;-69
2022/07/09 08:53:17;;;;;;;1.83;1.73;;;36.40;51.80;;;;;;5035192;28;20467;-68
2022/07/09 08:55:43;;;;;;;1.60;1.50;;;36.50;52.00;;;;;;5034937;28;20429;-69
2022/07/09 08:58:17;;;;;;;1.97;1.83;;;36.70;51.20;;;;;;5034582;28;20419;-68
2022/07/09 09:00:43;;;;;;;1.87;1.77;;;36.70;50.80;;;;;;5034207;28;20443;-71
2022/07/09 09:03:09;;;;;;;1.93;1.83;;;36.50;50.20;;;;;;5034839;28;20453;-70
2022/07/09 09:05:34;;;;;;;1.63;1.40;;;36.70;50.20;;;;;;5034884;28;20209;-70
2022/07/09 09:08:00;;;;;;;1.40;1.30;;;37.10;49.50;;;;;;5034902;28;20200;-72
2022/07/09 09:10:27;;;;;;;1.43;1.37;;;37.40;49.00;;;;;;5034416;28;20174;-72
2022/07/09 09:13:01;;;;;;;1.50;1.50;;;37.80;48.70;;;;;;5014685;28;20216;-73
2022/07/09 09:15:28;;;;;;;4.83;4.53;;;38.00;48.70;;;;;;5015283;28;20432;-72
2022/07/09 09:17:54;;;;;;;4.00;2.47;;;38.20;48.10;;;;;;5015046;28;20422;-72
2022/07/09 09:20:20;;;;;;;2.13;1.70;;;38.20;47.90;;;;;;5015159;28;20417;-71
2022/07/09 09:22:51;;;;;;;2.00;1.87;;;37.80;48.30;;;;;;5014675;28;20183;-69
2022/07/09 09:25:20;;;;;;;1.50;1.50;;;37.70;48.40;;;;;;5015814;28;20470;-66
2022/07/09 09:27:59;;;;;;;2.63;2.47;;;37.40;48.60;;;;;;5033270;28;20417;-67
2022/07/09 09:30:27;;;;;;;1.60;1.50;;;37.30;50.00;;;;;;5034680;28;20421;-66
2022/07/09 09:33:15;;;;;;;2.90;2.70;;;37.50;50.30;;;;;;5034212;28;20823;-65
2022/07/09 09:35:44;;;;;;;1.90;1.80;;;37.80;49.00;;;;;;5034728;28;20425;-65
2022/07/09 09:38:10;;;;;;;2.63;2.00;;;38.00;49.50;;;;;;5033375;28;20425;-65
2022/07/09 09:40:37;;;;;;;4.67;2.47;;;37.90;48.00;;;;;;5028091;28;20433;-65
2022/07/09 09:43:03;;;;;;;15.27;4.57;;;37.80;49.30;;;;;;5014558;28;20444;-68
2022/07/09 09:45:30;;;;;;;1.80;1.70;;;37.80;49.00;;;;;;5013122;28;20499;-67
2022/07/09 09:47:59;;;;;;;2.30;2.20;;;38.00;47.60;;;;;;5014661;28;20414;-66
2022/07/09 09:50:25;;;;;;;3.97;2.13;;;38.20;48.40;;;;;;5014594;28;20402;-66
2022/07/09 09:52:53;;;;;;;4.03;2.73;;;38.40;48.20;;;;;;5014048;28;20914;-66
2022/07/09 09:55:20;;;;;;;3.13;1.97;;;38.50;47.10;;;;;;5015708;28;20441;-63
2022/07/09 09:57:47;;;;;;;1.63;1.63;;;38.60;46.90;;;;;;5014079;28;20421;-63
2022/07/09 10:00:15;;;;;;;1.87;1.77;;;38.60;46.30;;;;;;5014228;28;20946;-64
2022/07/09 10:02:44;;;;;;;2.10;1.90;;;38.60;46.50;;;;;;5013900;28;20420;-66
2022/07/09 10:05:10;;;;;;;1.60;1.57;;;38.60;45.90;;;;;;5014065;28;20465;-64
2022/07/09 10:07:36;;;;;;;2.00;1.90;;;38.60;44.50;;;;;;5014179;28;20401;-66
2022/07/09 10:10:01;;;;;;;1.60;1.60;;;38.10;45.30;;;;;;5017347;28;20201;-67
2022/07/09 10:12:34;;;;;;;1.83;1.83;;;38.00;45.30;;;;;;5032184;28;20540;-65
2022/07/09 10:15:00;;;;;;;1.70;1.70;;;38.00;46.00;;;;;;5033065;28;20243;-67
2022/07/09 10:17:27;;;;;;;2.03;1.93;;;38.10;44.40;;;;;;5033033;28;20416;-66
2022/07/09 10:20:06;;;;;;;2.70;2.50;;;38.20;44.90;;;;;;5032177;28;20408;-66
2022/07/09 10:22:40;;;;;;;2.10;2.00;;;37.90;46.00;;;;;;5031507;28;20432;-66
2022/07/09 10:25:06;;;;;;;21.30;4.60;;;37.80;46.40;;;;;;5025271;28;20517;-64
2022/07/09 10:27:43;;;;;;;3.47;1.90;;;37.70;45.80;;;;;;5013882;28;20762;-66
2022/07/09 10:30:25;;;;;;;1.70;1.60;;;36.60;45.10;;;;;;5014037;28;20488;-63
2022/07/09 10:33:04;;;;;;;1.67;1.57;;;35.00;44.90;;;;;;5013393;28;20414;-67
2022/07/09 10:35:31;;;;;;;1.57;1.47;;;33.70;47.70;;;;;;5013639;28;20449;-66
2022/07/09 10:37:56;;;;;;;1.70;1.60;;;33.90;48.50;;;;;;5013520;28;20495;-68
2022/07/09 10:40:24;;;;;;;4.13;1.77;;;34.00;47.80;;;;;;5025984;28;20476;-65
2022/07/09 10:43:03;;;;;;;1.60;1.53;;;33.60;48.70;;;;;;5032943;28;20189;-67
2022/07/09 10:45:35;;;;;;;1.97;1.83;;;32.50;49.50;;;;;;5033235;28;20463;-65
2022/07/09 10:48:03;;;;;;;1.70;1.60;;;31.80;50.00;;;;;;5033463;28;20504;-66
2022/07/09 10:50:31;;;;;;;2.30;2.10;;;30.70;51.80;;;;;;5033846;28;20474;-64
2022/07/09 10:53:02;;;;;;;1.70;1.60;;;29.70;53.40;;;;;;5032940;28;20405;-64
2022/07/09 10:55:29;;;;;;;32.70;5.73;;;29.10;55.70;;;;;;5017875;28;20813;-66
2022/07/09 10:57:55;;;;;;;4.77;2.23;;;28.70;56.10;;;;;;5013558;28;20404;-65
2022/07/09 11:00:23;;;;;;;6.00;2.10;;;28.30;57.10;;;;;;5013393;28;20497;-63
2022/07/09 11:03:03;;;;;;;1.40;1.30;;;28.10;57.40;;;;;;5012972;28;20416;-64
2022/07/09 11:05:32;;;;;;;1.50;1.40;;;27.90;57.40;;;;;;5013294;28;20443;-66
2022/07/09 11:07:58;;;;;;;1.60;1.50;;;28.40;57.50;;;;;;5013565;28;20418;-67
2022/07/09 11:10:24;;;;;;;4.30;1.80;;;29.30;57.70;;;;;;5030013;28;20417;-64
2022/07/09 11:12:50;;;;;;;1.80;1.70;;;30.30;55.10;;;;;;5032963;28;20210;-67
2022/07/09 11:15:21;;;;;;;1.33;1.20;;;30.80;53.20;;;;;;5033049;28;20522;-65
2022/07/09 11:17:57;;;;;;;1.53;1.43;;;31.10;53.40;;;;;;5033279;28;20182;-67
2022/07/09 11:20:23;;;;;;;1.90;1.30;;;31.20;51.90;;;;;;5033815;28;20452;-64
2022/07/09 11:22:49;;;;;;;1.80;1.70;;;31.00;52.70;;;;;;5036733;28;20471;-67
2022/07/09 11:25:16;;;;;;;1.60;1.50;;;30.50;53.50;;;;;;5018609;28;20543;-63
2022/07/09 11:27:42;;;;;;;1.70;1.60;;;;;;;;;;5017106;28;20417;-64
2022/07/09 11:30:13;;;;;;;1.10;1.10;;;29.90;54.10;;;;;;5017055;28;20384;-64
2022/07/09 11:32:38;;;;;;;1.80;1.70;;;28.40;54.40;;;;;;5016944;28;21234;-68
2022/07/09 11:35:04;;;;;;;3.23;1.43;;;28.10;56.20;;;;;;5017022;28;20472;-63
2022/07/09 11:37:30;;;;;;;1.30;1.20;;;27.80;58.30;;;;;;5017023;28;20183;-66
2022/07/09 11:39:55;;;;;;;2.37;1.37;;;27.60;58.70;;;;;;5034046;28;20173;-63
2022/07/09 11:42:21;;;;;;;1.40;1.40;;;27.50;59.00;;;;;;5036367;28;20537;-65
2022/07/09 11:45:00;;;;;;;2.40;1.30;;;27.40;59.00;;;;;;5036650;28;20718;-65
2022/07/09 11:47:34;;;;;;;1.00;1.00;;;27.50;58.40;;;;;;5036711;28;20178;-65
2022/07/09 11:50:11;;;;;;;2.90;1.60;;;27.70;57.60;;;;;;5036732;28;20375;-63
2022/07/09 11:52:44;;;;;;;1.33;1.27;;;27.80;57.30;;;;;;5036079;28;20387;-65
2022/07/09 11:55:12;;;;;;;3.10;2.80;;;27.90;57.00;;;;;;5015404;28;20444;-64
2022/07/09 11:57:38;;;;;;;1.80;1.70;;;27.80;59.10;;;;;;5016829;28;20785;-67
2022/07/09 12:00:19;;;;;;;1.73;1.30;;;27.60;59.10;;;;;;5016655;28;20399;-64
2022/07/09 12:02:45;;;;;;;1.63;1.43;;;27.40;59.60;;;;;;5016209;28;20399;-67
2022/07/09 12:05:11;;;;;;;1.33;1.30;;;27.30;61.20;;;;;;5016405;28;20473;-64
2022/07/09 12:07:37;;;;;;;2.47;2.27;;;27.40;60.60;;;;;;5018666;28;20958;-68
2022/07/09 12:10:08;;;;;;;1.50;1.50;;;27.50;62.70;;;;;;5036246;28;20178;-64
2022/07/09 12:12:35;;;;;;;1.47;1.37;;;27.50;59.20;;;;;;5036262;28;20378;-67
2022/07/09 12:15:02;;;;;;;2.43;1.70;;;27.50;59.50;;;;;;5036188;28;20974;-64
2022/07/09 12:17:30;;;;;;;1.23;1.13;;;27.50;59.30;;;;;;5036696;28;20392;-67
2022/07/09 12:19:56;;;;;;;3.63;1.73;;;27.50;62.20;;;;;;5034693;28;20481;-65
2022/07/09 12:22:25;;;;;;;2.73;2.53;;;27.50;60.80;;;;;;5015520;28;20400;-66
2022/07/09 12:24:52;;;;;;;3.07;2.77;;;27.40;60.20;;;;;;5016083;28;20435;-65
2022/07/09 12:27:19;;;;;;;1.47;1.43;;;27.50;61.00;;;;;;5016256;28;20418;-66
2022/07/09 12:29:46;;;;;;;1.73;1.67;;;27.60;59.70;;;;;;5015947;28;20884;-66
2022/07/09 12:32:12;;;;;;;1.83;1.73;;;27.70;59.00;;;;;;5015604;28;20482;-64
2022/07/09 12:34:37;;;;;;;2.10;1.80;;;27.70;58.30;;;;;;5016232;28;20453;-66
2022/07/09 12:37:03;;;;;;;1.47;1.40;;;27.50;59.20;;;;;;5035754;28;20411;-65
2022/07/09 12:39:29;;;;;;;1.97;1.60;;;27.40;60.70;;;;;;5035613;28;20177;-68
2022/07/09 12:41:55;;;;;;;1.10;1.10;;;27.30;60.70;;;;;;5035589;28;20216;-63
2022/07/09 12:44:21;;;;;;;1.20;1.20;;;27.20;59.60;;;;;;5034854;28;20465;-67
2022/07/09 12:46:48;;;;;;;1.90;1.37;;;27.00;59.80;;;;;;5035633;28;20463;-66
2022/07/09 12:49:13;;;;;;;1.33;1.20;;;27.00;60.80;;;;;;5035563;28;20180;-67
2022/07/09 12:51:39;;;;;;;1.60;1.50;;;27.00;60.10;;;;;;5015844;28;20510;-65
2022/07/09 12:54:05;;;;;;;1.60;1.50;;;26.90;62.50;;;;;;5015324;28;20287;-66
2022/07/09 12:56:30;;;;;;;1.23;1.13;;;26.90;63.20;;;;;;5015402;28;20177;-65
2022/07/09 12:58:56;;;;;;;1.60;1.50;;;26.90;60.10;;;;;;5015504;28;20176;-65
2022/07/09 13:01:22;;;;;;;1.40;1.30;;;26.90;60.40;;;;;;5021333;28;20521;-65
2022/07/09 13:03:47;;;;;;;1.57;1.47;;;26.80;60.60;;;;;;5034595;28;20697;-64
2022/07/09 13:06:31;;;;;;;1.53;1.20;;;26.70;60.80;;;;;;5031652;28;20184;-67
2022/07/09 13:08:58;;;;;;;1.20;1.20;;;26.60;60.70;;;;;;5014903;28;20176;-66
2022/07/09 13:11:23;;;;;;;2.03;1.80;;;26.50;60.40;;;;;;5016559;28;20873;-66
2022/07/09 13:13:49;;;;;;;1.73;1.60;;;26.60;63.70;;;;;;5025014;28;20529;-65
2022/07/09 13:16:15;;;;;;;1.40;1.30;;;26.80;64.00;;;;;;5015429;28;20182;-67
2022/07/09 13:18:41;;;;;;;1.20;1.20;;;27.00;63.00;;;;;;5019197;28;20190;-65
2022/07/09 13:21:06;;;;;;;1.23;1.20;;;27.10;60.90;;;;;;5034434;28;20171;-68
2022/07/09 13:23:32;;;;;;;0.87;0.87;;;27.30;59.90;;;;;;5034097;28;20261;-66
2022/07/09 13:25:58;;;;;;;1.10;1.10;;;27.50;60.70;;;;;;5034309;28;20229;-68
2022/07/09 13:28:24;;;;;;;1.10;1.10;;;27.70;59.30;;;;;;5020303;28;20185;-63
2022/07/09 13:30:49;;;;;;;1.20;1.20;;;27.80;59.00;;;;;;5015040;28;20406;-65
2022/07/09 13:33:15;;;;;;;2.50;1.10;;;27.90;59.50;;;;;;5013961;28;20210;-65
2022/07/09 13:35:41;;;;;;;1.70;1.60;;;28.10;59.40;;;;;;5014710;28;20645;-69
2022/07/09 13:38:07;;;;;;;1.20;1.20;;;28.30;58.10;;;;;;5024738;28;20185;-68
2022/07/09 13:40:32;;;;;;;1.13;1.13;;;28.40;58.30;;;;;;5034464;28;20179;-68
2022/07/09 13:42:58;;;;;;;1.20;1.20;;;28.50;58.30;;;;;;5033557;28;20782;-69
2022/07/09 13:45:24;;;;;;;1.30;1.20;;;28.70;57.70;;;;;;5033619;28;20216;-73
2022/07/09 13:47:49;;;;;;;3.10;1.43;;;28.80;57.00;;;;;;5025900;28;20179;-70
2022/07/09 13:50:15;;;;;;;1.30;1.30;;;28.80;57.30;;;;;;5014359;28;20650;-66
2022/07/09 13:52:41;;;;;;;1.30;1.20;;;28.70;56.90;;;;;;5013973;28;20218;-69
2022/07/09 13:55:07;;;;;;;1.60;1.50;;;28.60;57.30;;;;;;5014600;28;20706;-69
2022/07/09 13:57:32;;;;;;;1.67;1.57;;;28.60;57.50;;;;;;5019128;28;20181;-71
2022/07/09 13:59:58;;;;;;;4.83;1.50;;;28.50;57.10;;;;;;5034333;28;20416;-68
2022/07/09 14:02:24;;;;;;;1.60;1.50;;;28.30;57.10;;;;;;5033540;28;20588;-68
2022/07/09 14:04:49;;;;;;;1.20;1.20;;;28.10;58.30;;;;;;5033752;28;20217;-68
2022/07/09 14:07:16;;;;;;;1.33;1.33;;;28.10;58.60;;;;;;5031192;28;20261;-68
2022/07/09 14:09:42;;;;;;;1.37;1.30;;;27.80;57.70;;;;;;5014222;28;20254;-66
2022/07/09 14:12:08;;;;;;;3.23;2.63;;;27.60;58.50;;;;;;5014113;28;20905;-68
2022/07/09 14:14:34;;;;;;;1.70;1.60;;;27.60;60.40;;;;;;5012659;28;20434;-67
2022/07/09 14:17:01;;;;;;;3.80;1.53;;;27.70;59.90;;;;;;5014076;28;20182;-68
2022/07/09 14:19:26;;;;;;;1.83;1.73;;;27.70;59.60;;;;;;5033349;28;20462;-68
2022/07/09 14:21:52;;;;;;;2.00;1.47;;;27.90;60.50;;;;;;5033137;28;20407;-67
2022/07/09 14:24:18;;;;;;;1.40;1.40;;;27.80;59.40;;;;;;5032782;28;20210;-67
2022/07/09 14:26:45;;;;;;;1.57;1.47;;;27.70;59.50;;;;;;5033068;28;20248;-67
2022/07/09 14:29:11;;;;;;;1.80;1.70;;;27.70;59.70;;;;;;5015334;28;20195;-64
2022/07/09 14:31:37;;;;;;;1.60;1.50;;;27.70;59.40;;;;;;5013611;28;20396;-64
2022/07/09 14:34:03;;;;;;;1.50;1.47;;;27.80;60.90;;;;;;5013101;28;20506;-64
2022/07/09 14:36:29;;;;;;;1.73;1.63;;;27.70;59.60;;;;;;5012055;28;20190;-67
2022/07/09 14:38:54;;;;;;;1.70;1.60;;;27.70;59.60;;;;;;5013678;28;20637;-65
2022/07/09 14:41:20;;;;;;;1.87;1.77;;;27.60;60.70;;;;;;5013264;28;20470;-65
2022/07/09 14:43:45;;;;;;;1.73;1.63;;;27.50;60.90;;;;;;5012981;28;20198;-64
2022/07/09 14:46:11;;;;;;;2.10;2.00;;;27.50;61.90;;;;;;5013449;28;20230;-64
2022/07/09 14:48:37;;;;;;;1.60;1.53;;;27.50;62.60;;;;;;5029585;28;20182;-64
2022/07/09 14:51:03;;;;;;;1.83;1.73;;;27.60;62.90;;;;;;5031364;28;20212;-66
2022/07/09 14:53:29;;;;;;;1.70;1.60;;;27.50;60.80;;;;;;5024687;28;20238;-66
2022/07/09 14:55:55;;;;;;;2.03;1.93;;;27.60;61.60;;;;;;5029096;28;20426;-65
2022/07/09 14:58:21;;;;;;;1.73;1.63;;;27.70;62.10;;;;;;5018668;28;20447;-65
2022/07/09 15:00:46;;;;;;;2.20;2.10;;;27.80;60.80;;;;;;5015197;28;20193;-66
2022/07/09 15:03:12;;;;;;;2.33;2.10;;;27.80;61.00;;;;;;5031495;28;20182;-66
2022/07/09 15:05:38;;;;;;;1.90;1.80;;;27.70;59.80;;;;;;5026503;28;20245;-65
2022/07/09 15:08:04;;;;;;;2.10;1.93;;;27.80;61.40;;;;;;5022449;28;20503;-65
2022/07/09 15:10:29;;;;;;;2.00;1.90;;;27.80;62.10;;;;;;5020922;28;20677;-64
2022/07/09 15:12:55;;;;;;;2.23;2.03;;;27.80;62.50;;;;;;5021504;28;20253;-66
2022/07/09 15:15:21;;;;;;;4.13;3.27;;;27.80;61.40;;;;;;5022358;28;20237;-66
2022/07/09 15:17:46;;;;;;;1.90;1.80;;;27.70;61.20;;;;;;5020193;28;20327;-65
2022/07/09 15:20:12;;;;;;;1.90;1.80;;;27.50;60.50;;;;;;5022270;28;20191;-65
2022/07/09 15:22:38;;;;;;;2.00;1.90;;;27.30;61.50;;;;;;5020855;28;20175;-65
2022/07/09 15:25:05;;;;;;;1.80;1.70;;;27.10;62.00;;;;;;5022597;28;20202;-65
2022/07/09 15:27:31;;;;;;;3.10;2.07;;;26.90;62.60;;;;;;5022375;28;20414;-65
2022/07/09 15:29:57;;;;;;;1.80;1.70;;;26.70;62.40;;;;;;5022441;28;20478;-65
2022/07/09 15:32:23;;;;;;;2.30;2.20;;;26.50;63.50;;;;;;5020288;28;20414;-66
2022/07/09 15:34:49;;;;;;;2.30;2.10;;;26.30;63.30;;;;;;5021088;28;20440;-65
2022/07/09 15:37:14;;;;;;;1.70;1.60;;;26.10;63.40;;;;;;5022210;28;20403;-64
2022/07/09 15:39:41;;;;;;;2.07;1.90;;;26.10;63.90;;;;;;5020215;28;20191;-65
2022/07/09 15:42:09;;;;;;;2.23;2.03;;;26.10;64.10;;;;;;5020241;28;20190;-64
2022/07/09 15:44:35;;;;;;;1.90;1.80;;;26.00;64.30;;;;;;5012772;28;20470;-63
2022/07/09 15:47:00;;;;;;;3.37;2.00;;;26.10;65.10;;;;;;5020570;28;20397;-63
2022/07/09 15:49:26;;;;;;;2.20;2.10;;;26.10;65.20;;;;;;5027937;28;20182;-66
2022/07/09 15:51:52;;;;;;;4.50;2.23;;;26.20;64.50;;;;;;5032036;28;20174;-64
2022/07/09 15:54:18;;;;;;;2.23;1.87;;;26.30;65.50;;;;;;5027374;28;20222;-63
2022/07/09 15:56:43;;;;;;;2.40;2.20;;;26.50;64.60;;;;;;5021685;28;20867;-64
2022/07/09 15:59:09;;;;;;;1.97;1.87;;;26.50;65.00;;;;;;5032298;28;20573;-63
2022/07/09 16:01:35;;;;;;;2.10;2.00;;;26.60;65.40;;;;;;5033031;28;20277;-68
2022/07/09 16:04:01;;;;;;;1.97;1.77;;;26.70;65.30;;;;;;5031953;28;20207;-63
2022/07/09 16:06:26;;;;;;;2.40;2.30;;;26.80;65.10;;;;;;5023104;28;20203;-64
2022/07/09 16:08:52;;;;;;;1.93;1.83;;;26.80;65.40;;;;;;5016255;28;20743;-66
2022/07/09 16:14:02;;;;;;;2.10;2.00;;;26.70;65.60;;;;;;5015986;28;20621;-69
2022/07/09 16:16:27;;;;;;;2.77;2.57;;;26.50;66.70;;;;;;5016254;28;20436;-69
2022/07/09 16:18:53;;;;;;;2.43;2.23;;;26.40;66.00;;;;;;5016431;28;20198;-68
2022/07/09 16:21:19;;;;;;;2.30;2.20;;;26.30;65.60;;;;;;5017315;28;20248;-68
2022/07/09 16:23:44;;;;;;;1.73;1.63;;;26.20;66.00;;;;;;5015614;28;20210;-68
2022/07/09 16:26:10;;;;;;;2.40;2.30;;;26.10;65.90;;;;;;5021283;28;20202;-68
2022/07/09 16:28:36;;;;;;;2.17;2.07;;;25.90;66.20;;;;;;5032431;28;20171;-67
2022/07/09 16:31:01;;;;;;;2.73;2.30;;;25.80;66.90;;;;;;5016193;28;20175;-69
2022/07/09 16:33:27;;;;;;;2.17;2.07;;;25.60;68.20;;;;;;5015628;28;20187;-69
2022/07/09 16:35:53;;;;;;;1.90;1.80;;;25.60;68.80;;;;;;5016139;28;20182;-70
2022/07/09 16:38:19;;;;;;;2.27;2.17;;;25.60;70.90;;;;;;5015938;28;20193;-66
2022/07/09 16:40:45;;;;;;;3.10;2.80;;;25.60;69.60;;;;;;5019742;28;20880;-65
2022/07/09 16:43:10;;;;;;;2.93;2.70;;;25.50;71.10;;;;;;5022928;28;20222;-66
2022/07/09 16:45:39;;;;;;;2.40;2.27;;;25.50;71.00;;;;;;5014008;28;20234;-67
2022/07/09 16:48:05;;;;;;;2.00;1.90;;;25.50;72.00;;;;;;5032893;28;20174;-68
2022/07/09 16:50:31;;;;;;;2.53;2.33;;;25.60;71.30;;;;;;5035509;28;20466;-68
2022/07/09 16:52:57;;;;;;;2.80;2.43;;;25.60;72.00;;;;;;5034937;28;20419;-69